22:18
Airports
History
Links
Donate
Help keep this website running!
PayPal
Bitcoin
Information on this page is community maintained and may be outdated or inaccurate and is intended for reference only or PC simulator navigating.
Always use approved charts for navigating.
BIMS
Mosfellssveit
Mosfellssveit (BIMS)
Mosfellsbær, Capital Region, Iceland
4
Lat/Lng:64° 10' 58.14" N / 21° 42' 20.35" W
64.182816 / -21.705652
Elevation:6'ft 2mMSL
ID / ICAO:BIMS
Runways:1
Longest:(07-25) 450.6m 1,478ft Grass
Distance To
Airport ID:
Nearby VORs <50NM
Nearby NDBs
Nearby WeatherUpdated 06-26-17 22:14 GMT
Nearby weather at BIRK, Reykjavik located 8.1 nautical miles from BIMS
Altimeter: 29.88
Visibility: 6.2 statute miles
Wind: 12 knots (200°)
Temp: 8°c 46°f
Humidity: 81.3%

METAR: BIRK 262214Z 20012KT 9999 7000S SHRA FEW014 FEW20CB BKN019 OVC038 08/05 Q1012

(Powered by phpweather)
Runway 07 / 25
Dimensions:450.6 x 27.4m 1478' x 90'ft
Surface:Grass
Runway 07 [A]Runway 25 [B]
Heading:048°TH 228°TH
Lat:
Lng:
64° 10' 53.28"N
21° 42' 33.18"W
64° 11' 2.99"N
21° 42' 7.51"W
User Notes and Comments
Google Map
Nearby Airports
(C) Reykjavik 8.1 NM
BIRK (WX) WSW 242°
4 Sandskeid 9.1 NM
BISS SSE 154°
4 Selfoss 26.7 NM
BISF SE 130°
(C) KEFLAVIK NAS 31.1 NM
BIKF WSW 242°
4 Stori Kroppur 32.1 NM
BISR N 11°
4 Forsaeti 37.7 NM
BIFZ SE 127°
4 Fludir 41.6 NM
BIFL E 93°
VFR Chart
Flight Planning at SkyVector.com